Etusivu
METAR-TAF:

METAR-TAF

Lentoasemat :

Diourbel, Senegal

Leveyspiiri: 14-39N, Pituuspiiri: 016-14W, korkeus merenpinnasta: 7 m

Tämänhetkinen sää

Tämä raportti tehtiin 16 minuuttia sitten, kello 19.00 UTC
Tuuli 4 kn lännestä/lounaasta
Lämpötila 33°C
Kosteus 56%
Ilmanpaine 1011 hPa
Näkyvyys 10 km tai enemmän
Muutamia pilviä 1500 ft:n korkeudessa

METAR: GOOD 221900Z 24004KT 9999 FEW015 33/23 Q1011

Aika: 19:16 (19:16 UTC)


TAF: puuttuu

Säähavainnot ja -ennusteet yli 4000 lentoasemalta (METAR- ja TAF-raportit).

Käytössä olevat sääasemat on merkitty karttaan keltaisilla ja punaisilla pisteillä.

Aseta hiiri pisteen päälle nähdäksesi sääaseman nimen.

Klikkaa sitten nähdäksesi säähavainnot ja -ennusteet.

Kartan vaihtaminen: klikkaa mustalla rastilla varustettuja vihreitä pisteitä, niin voit zoomata sisään; viivalla varustettua vihreää pistettä, niin voit zoomata ulos tai vihreitä nuolia, niin pääset viereisille kartoille.


METAR-TAF: